Time;durP1;ratioP1;P1;durP2;ratioP2;P2;SDS_P1;SDS_P2;PMS_P1;PMS_P2;Temp;Humidity;BMP_temperature;BMP_pressure;BME280_temperature;BME280_humidity;BME280_pressure;Samples;Min_cycle;Max_cycle;Signal;HPM_P1;HPM_P2
2022/11/12 00:03:13;;;;;;;13.85;5.88;;;;;;;6.55;90.06;100839.28;8446118;28;20060;-73
2022/11/12 00:07:14;;;;;;;11.57;5.28;;;;;;;6.51;90.21;100838.09;8390538;28;20052;-74
2022/11/12 00:11:15;;;;;;;14.18;5.80;;;;;;;6.47;90.14;100840.47;8409337;28;20052;-73
2022/11/12 00:15:16;;;;;;;11.75;5.32;;;;;;;6.44;90.65;100837.47;8439748;28;20039;-73
2022/11/12 00:19:17;;;;;;;11.10;5.15;;;;;;;6.40;90.67;100841.69;8432193;28;20063;-75
2022/11/12 00:23:18;;;;;;;10.77;5.43;;;;;;;6.35;90.74;100851.22;8436206;28;20040;-74
2022/11/12 00:27:19;;;;;;;13.02;5.20;;;;;;;6.34;90.80;100849.59;8435130;28;20048;-74
2022/11/12 00:31:20;;;;;;;11.00;4.88;;;;;;;6.33;90.73;100842.63;8433656;28;20068;-74
2022/11/12 00:35:21;;;;;;;11.45;5.28;;;;;;;6.31;90.74;100844.72;8429126;28;20075;-74
2022/11/12 00:39:22;;;;;;;14.30;5.40;;;;;;;6.28;90.96;100845.22;8434534;28;20115;-74
2022/11/12 00:43:23;;;;;;;12.90;5.90;;;;;;;6.27;91.14;100848.13;8442208;28;20048;-73
2022/11/12 00:47:24;;;;;;;10.90;5.38;;;;;;;6.25;91.27;100851.03;8381187;28;20151;-73
2022/11/12 00:51:25;;;;;;;14.63;5.57;;;;;;;6.27;91.70;100854.31;8429119;28;20044;-74
2022/11/12 00:55:26;;;;;;;12.38;5.70;;;;;;;6.27;91.54;100851.63;8427161;28;20470;-74
2022/11/12 00:59:27;;;;;;;13.48;5.60;;;;;;;6.31;91.79;100858.13;8427843;28;20109;-74
2022/11/12 01:03:28;;;;;;;14.32;5.10;;;;;;;6.33;92.00;100848.00;8445926;28;20042;-73
2022/11/12 01:07:29;;;;;;;12.18;4.78;;;;;;;6.34;92.14;100844.22;8430493;28;20048;-73
2022/11/12 01:11:30;;;;;;;13.88;5.57;;;;;;;6.32;91.85;100841.00;8431287;28;20098;-74
2022/11/12 01:15:31;;;;;;;11.13;5.07;;;;;;;6.30;92.03;100843.09;8414783;28;20067;-74
2022/11/12 01:19:32;;;;;;;13.88;5.10;;;;;;;6.29;92.14;100846.81;8437362;28;20058;-73
2022/11/12 01:23:34;;;;;;;14.57;5.15;;;;;;;6.26;92.27;100841.94;8440140;28;20040;-73
2022/11/12 01:27:35;;;;;;;11.52;4.93;;;;;;;6.23;92.16;100842.44;8436772;28;20131;-73
2022/11/12 01:31:37;;;;;;;14.77;5.57;;;;;;;6.21;92.36;100838.34;8441323;28;20043;-74
2022/11/12 01:35:38;;;;;;;11.07;6.28;;;;;;;6.18;92.51;100834.28;8435408;28;20062;-73
2022/11/12 01:39:39;;;;;;;11.32;5.25;;;;;;;6.13;92.56;100842.22;8431954;28;20047;-73
2022/11/12 01:43:40;;;;;;;16.13;5.18;;;;;;;6.10;92.85;100847.22;8388412;28;20055;-73
2022/11/12 01:47:41;;;;;;;10.57;5.20;;;;;;;6.10;93.06;100837.31;8440157;28;20493;-74
2022/11/12 01:51:46;;;;;;;11.35;5.47;;;;;;;6.07;92.67;100840.50;8417765;28;20060;-74
2022/11/12 01:55:47;;;;;;;14.10;5.43;;;;;;;6.18;93.22;100838.81;8441170;28;20040;-74
2022/11/12 01:59:49;;;;;;;10.40;4.75;;;;;;;6.14;92.99;100838.47;8416870;28;20152;-73
2022/11/12 02:03:50;;;;;;;9.57;4.63;;;;;;;6.08;93.23;100842.09;8431036;28;20040;-74
2022/11/12 02:07:51;;;;;;;17.10;5.28;;;;;;;6.04;93.28;100843.63;8436142;28;20121;-73
2022/11/12 02:11:52;;;;;;;9.30;5.00;;;;;;;5.99;93.31;100840.84;8430695;28;20059;-73
2022/11/12 02:15:54;;;;;;;10.38;4.45;;;;;;;5.96;93.61;100830.59;8438305;28;20479;-73
2022/11/12 02:19:58;;;;;;;11.00;4.57;;;;;;;5.92;93.79;100829.44;8430572;28;20052;-74
2022/11/12 02:24:04;;;;;;;10.73;5.20;;;;;;;5.95;93.82;100820.91;8378128;28;20138;-74
2022/11/12 02:28:06;;;;;;;10.93;4.75;;;;;;;5.90;93.67;100821.63;8431732;28;20051;-73
2022/11/12 02:32:07;;;;;;;13.57;5.30;;;;;;;5.88;93.84;100818.34;8452448;28;20554;-73
2022/11/12 02:36:08;;;;;;;13.25;5.50;;;;;;;5.88;93.84;100830.94;8441209;28;20048;-73
2022/11/12 02:40:09;;;;;;;11.88;5.50;;;;;;;5.90;94.05;100826.16;8392053;28;20518;-73
2022/11/12 02:44:11;;;;;;;12.10;5.57;;;;;;;5.86;94.11;100819.63;8385998;28;20048;-73
2022/11/12 02:48:12;;;;;;;11.70;5.90;;;;;;;5.83;94.11;100836.97;8428046;28;20072;-73
2022/11/12 02:52:13;;;;;;;10.55;5.07;;;;;;;5.82;94.35;100829.16;8318081;28;20093;-73
2022/11/12 02:56:14;;;;;;;10.00;5.13;;;;;;;5.78;94.47;100823.47;8305287;28;20037;-73
2022/11/12 03:00:17;;;;;;;8.73;4.63;;;;;;;5.81;94.39;100830.25;8322040;28;20081;-73
2022/11/12 03:04:18;;;;;;;13.65;5.60;;;;;;;5.78;94.49;100833.38;8317728;28;20062;-74
2022/11/12 03:08:19;;;;;;;11.82;5.43;;;;;;;5.80;94.37;100831.28;8313554;28;20083;-73
2022/11/12 03:12:20;;;;;;;12.65;5.22;;;;;;;5.78;94.57;100828.00;8313770;28;20405;-73
2022/11/12 03:16:21;;;;;;;14.40;5.18;;;;;;;5.73;94.62;100835.94;8304505;28;20042;-73
2022/11/12 03:20:22;;;;;;;14.73;5.18;;;;;;;5.69;94.80;100829.44;8262473;28;20570;-74
2022/11/12 03:24:23;;;;;;;10.80;5.50;;;;;;;5.67;94.95;100832.34;8406495;28;20055;-74
2022/11/12 03:28:24;;;;;;;12.80;5.65;;;;;;;5.66;95.16;100829.91;8414295;28;20465;-73
2022/11/12 03:32:28;;;;;;;13.93;5.32;;;;;;;5.66;95.07;100829.91;8403756;28;20048;-73
2022/11/12 03:36:28;;;;;;;12.57;5.28;;;;;;;5.65;95.03;100828.28;8384448;28;20422;-73
2022/11/12 03:40:30;;;;;;;11.32;5.53;;;;;;;5.63;95.31;100825.81;8425789;28;20036;-73
2022/11/12 03:44:32;;;;;;;8.35;4.93;;;;;;;5.62;95.33;100839.44;8436980;28;20048;-74
2022/11/12 03:48:33;;;;;;;15.68;5.72;;;;;;;5.66;95.50;100829.91;8427566;28;20081;-73
2022/11/12 03:52:34;;;;;;;14.70;5.70;;;;;;;5.73;95.42;100835.94;8441195;28;20445;-73
2022/11/12 03:56:35;;;;;;;14.20;5.55;;;;;;;5.74;95.71;100832.22;8386617;28;20044;-73
2022/11/12 04:00:36;;;;;;;14.90;5.55;;;;;;;5.73;95.54;100825.22;8431227;28;20073;-74
2022/11/12 04:09:01;;;;;;;12.75;6.07;;;;;;;5.72;95.79;100834.31;8329900;28;20180;-74
2022/11/12 04:21:49;;;;;;;10.90;5.75;;;;;;;5.56;96.03;100827.78;8322618;28;20041;-73
2022/11/12 04:30:17;;;;;;;13.80;5.32;;;;;;;5.45;96.00;100829.44;8298384;28;19921;-73
2022/11/12 04:34:27;;;;;;;11.75;5.53;;;;;;;5.39;96.21;100825.00;8332894;28;20528;-74
2022/11/12 04:38:28;;;;;;;15.05;6.60;;;;;;;5.33;96.20;100820.59;8322066;28;20061;-73
2022/11/12 04:46:48;;;;;;;13.98;5.40;;;;;;;5.19;96.55;100824.53;8413449;28;20520;-73
2022/11/12 04:50:53;;;;;;;9.82;4.95;;;;;;;5.14;96.62;100832.44;8372303;28;20044;-73
2022/11/12 04:54:54;;;;;;;12.20;5.45;;;;;;;5.09;96.55;100835.00;8425390;28;20525;-73
2022/11/12 04:58:55;;;;;;;11.68;5.20;;;;;;;5.03;96.66;100825.19;8432588;28;20044;-73
2022/11/12 05:02:56;;;;;;;9.23;4.50;;;;;;;4.98;96.90;100830.44;8425598;28;20080;-75
2022/11/12 05:06:57;;;;;;;14.15;5.28;;;;;;;4.90;97.02;100841.50;8425927;28;20079;-73
2022/11/12 05:10:59;;;;;;;13.77;5.50;;;;;;;4.87;96.97;100841.94;8424999;28;20482;-73
2022/11/12 05:15:00;;;;;;;8.82;4.95;;;;;;;4.84;97.02;100845.06;8425209;28;20046;-74
2022/11/12 05:19:01;;;;;;;14.07;6.03;;;;;;;4.77;96.88;100841.66;8426584;28;20040;-73
2022/11/12 05:23:02;;;;;;;14.35;5.30;;;;;;;4.71;96.98;100837.22;8426603;28;20051;-73
2022/11/12 05:27:06;;;;;;;13.15;5.60;;;;;;;4.65;97.11;100839.75;8373290;28;20048;-74
2022/11/12 05:31:07;;;;;;;16.70;5.30;;;;;;;4.61;97.24;100845.81;8425669;28;20547;-74
2022/11/12 05:35:08;;;;;;;15.65;5.30;;;;;;;4.56;97.17;100851.84;8436960;28;20071;-76
2022/11/12 05:39:09;;;;;;;11.68;5.63;;;;;;;4.51;97.09;100842.88;8427504;28;20072;-74
2022/11/12 05:43:10;;;;;;;13.85;5.70;;;;;;;4.46;97.42;100848.91;8427205;28;20059;-75
2022/11/12 05:47:11;;;;;;;16.02;5.40;;;;;;;4.38;97.13;100854.56;8434713;28;20071;-74
2022/11/12 05:51:13;;;;;;;10.80;5.88;;;;;;;4.33;97.26;100862.44;8420407;28;20044;-73
2022/11/12 05:55:14;;;;;;;16.85;6.57;;;;;;;4.30;97.42;100862.88;8422468;28;20135;-73
2022/11/12 05:59:15;;;;;;;10.20;5.63;;;;;;;4.30;97.39;100862.88;8434592;28;20040;-73
2022/11/12 06:03:16;;;;;;;14.95;6.53;;;;;;;4.30;97.36;100872.75;8432800;28;20134;-73
2022/11/12 06:07:17;;;;;;;14.20;5.70;;;;;;;4.28;97.19;100875.69;8437243;28;20059;-74
2022/11/12 06:11:18;;;;;;;12.90;5.78;;;;;;;4.27;97.19;100879.41;8430968;28;20047;-74
2022/11/12 06:15:19;;;;;;;16.25;7.25;;;;;;;4.23;97.16;100884.34;8411811;28;20044;-73
2022/11/12 06:19:20;;;;;;;12.02;6.47;;;;;;;4.23;97.24;100880.88;8429254;28;20119;-73
2022/11/12 06:23:21;;;;;;;14.07;6.20;;;;;;;4.23;97.20;100888.88;8427167;28;20040;-73
2022/11/12 06:27:22;;;;;;;11.85;6.30;;;;;;;4.26;96.98;100891.13;8429434;28;20064;-73
2022/11/12 06:31:24;;;;;;;12.38;6.60;;;;;;;4.26;96.98;100896.47;8440223;28;20067;-73
2022/11/12 06:35:24;;;;;;;13.90;6.13;;;;;;;4.26;96.89;100893.81;8429902;28;20052;-73
2022/11/12 06:39:26;;;;;;;13.63;6.00;;;;;;;4.26;96.91;100899.16;8429690;28;20051;-73
2022/11/12 06:43:28;;;;;;;12.27;6.03;;;;;;;4.25;96.89;100892.16;8431218;28;20379;-73
2022/11/12 06:47:29;;;;;;;13.95;6.68;;;;;;;4.24;97.05;100895.88;8429951;28;20089;-73
2022/11/12 06:51:30;;;;;;;13.90;6.43;;;;;;;4.25;97.07;100902.88;8378027;28;20123;-74
2022/11/12 06:55:31;;;;;;;17.40;6.32;;;;;;;4.26;97.09;100909.84;8392834;28;20052;-73
2022/11/12 06:59:32;;;;;;;14.15;6.55;;;;;;;4.26;97.10;100912.53;8393679;28;20498;-74
2022/11/12 07:03:33;;;;;;;14.45;6.65;;;;;;;4.28;97.00;100902.44;8429172;28;20036;-73
2022/11/12 07:07:35;;;;;;;11.90;5.95;;;;;;;4.29;96.96;100914.75;8430161;28;20079;-73
2022/11/12 07:11:36;;;;;;;13.70;5.80;;;;;;;4.30;97.01;100916.38;8429973;28;20047;-73
2022/11/12 07:15:37;;;;;;;18.80;6.57;;;;;;;4.32;97.08;100914.31;8438309;28;20174;-74
2022/11/12 07:19:38;;;;;;;10.88;6.25;;;;;;;4.39;96.89;100912.34;8416131;28;20464;-74
2022/11/12 07:23:39;;;;;;;15.40;5.90;;;;;;;4.49;96.65;100920.69;8429217;28;20048;-73
2022/11/12 07:27:40;;;;;;;14.07;7.20;;;;;;;4.60;96.51;100917.22;8432014;28;20046;-73
2022/11/12 07:31:41;;;;;;;16.70;6.55;;;;;;;4.76;96.01;100904.28;8429639;28;20043;-73
2022/11/12 07:35:42;;;;;;;15.35;6.70;;;;;;;4.92;96.31;100912.47;8429347;28;20141;-73
2022/11/12 07:39:43;;;;;;;17.85;7.20;;;;;;;5.08;96.15;100919.06;8380222;28;20056;-73
2022/11/12 07:43:46;;;;;;;17.77;7.60;;;;;;;5.27;96.32;100923.31;8427752;28;20417;-73
2022/11/12 07:47:46;;;;;;;17.10;7.15;;;;;;;5.45;96.25;100915.19;8427157;28;20109;-75
2022/11/12 07:51:47;;;;;;;18.38;7.68;;;;;;;5.74;96.26;100918.00;8395888;28;20048;-74
2022/11/12 07:55:56;;;;;;;20.75;8.38;;;;;;;5.96;96.52;100911.03;8428626;28;20421;-73
2022/11/12 07:59:57;;;;;;;;;;;;;;;6.20;96.45;100901.09;8412680;28;20181;-74
2022/11/12 08:03:58;;;;;;;17.77;7.43;;;;;;;6.34;96.14;100903.25;8427625;28;20343;-74
2022/11/12 08:08:00;;;;;;;15.20;6.63;;;;;;;6.54;95.82;100902.06;8427492;28;20051;-73
2022/11/12 08:12:00;;;;;;;15.98;6.28;;;;;;;6.73;95.70;100906.19;8412639;28;20136;-74
2022/11/12 08:16:02;;;;;;;15.30;7.35;;;;;;;6.84;95.00;100917.94;8421678;28;20059;-74
2022/11/12 08:20:03;;;;;;;14.43;6.40;;;;;;;6.97;94.36;100921.16;8427664;28;20076;-73
2022/11/12 08:24:05;;;;;;;465.35;259.85;;;;;;;7.19;93.89;100922.06;8392054;28;20403;-73
2022/11/12 08:28:05;;;;;;;30.23;13.13;;;;;;;7.31;93.54;100929.25;8429928;28;20052;-74
2022/11/12 08:32:06;;;;;;;16.70;8.50;;;;;;;7.45;92.48;100931.41;8417942;28;20048;-73
2022/11/12 08:36:10;;;;;;;18.65;7.72;;;;;;;7.64;91.91;100929.28;8426854;28;20127;-74
2022/11/12 08:40:11;;;;;;;17.52;6.88;;;;;;;7.79;91.42;100932.22;8426479;28;20040;-74
2022/11/12 08:44:12;;;;;;;21.10;8.95;;;;;;;7.92;91.24;100921.13;8426557;28;20040;-74
2022/11/12 08:48:13;;;;;;;20.02;7.18;;;;;;;8.05;90.36;100928.81;8428865;28;20055;-74
2022/11/12 08:52:14;;;;;;;13.88;6.65;;;;;;;8.15;89.91;100930.03;8422881;28;20040;-74
2022/11/12 08:56:15;;;;;;;15.13;6.97;;;;;;;8.27;88.75;100938.81;8426446;28;20052;-75
2022/11/12 09:00:18;;;;;;;15.07;6.45;;;;;;;8.37;87.91;100944.34;8426983;28;20093;-74
2022/11/12 09:04:19;;;;;;;15.57;6.78;;;;;;;8.49;87.02;100936.97;8426499;28;20047;-74
2022/11/12 09:08:24;;;;;;;12.40;6.28;;;;;;;8.57;86.48;100938.41;8419919;28;20055;-74
2022/11/12 09:12:25;;;;;;;11.60;6.10;;;;;;;8.65;86.30;100938.81;8418686;28;20428;-74
2022/11/12 09:16:25;;;;;;;15.00;5.85;;;;;;;8.72;85.67;100935.91;8425691;28;20051;-73
2022/11/12 09:20:27;;;;;;;16.70;6.43;;;;;;;8.74;85.50;100939.97;8426387;28;20049;-73
2022/11/12 09:24:28;;;;;;;19.40;8.63;;;;;;;8.79;84.89;100937.34;8425986;28;20494;-73
2022/11/12 09:28:29;;;;;;;16.00;6.53;;;;;;;8.90;84.20;100944.47;8426168;28;20044;-74
2022/11/12 09:32:30;;;;;;;18.25;7.68;;;;;;;8.97;83.73;100936.19;8373660;28;20055;-73
2022/11/12 09:36:31;;;;;;;20.42;6.97;;;;;;;9.06;83.36;100947.31;8396339;28;20056;-74
2022/11/12 09:40:50;;;;;;;16.50;6.72;;;;;;;9.05;83.16;100941.13;8362592;28;20095;-73
2022/11/12 09:44:58;;;;;;;17.50;6.68;;;;;;;9.07;83.03;100938.19;8398223;28;20183;-73
2022/11/12 09:49:30;;;;;;;16.33;6.65;;;;;;;9.13;83.06;100942.56;8366900;28;20040;-74
2022/11/12 09:53:42;;;;;;;15.43;7.03;;;;;;;9.00;83.48;100953.72;8294852;28;20046;-74
2022/11/12 09:57:43;;;;;;;13.63;7.07;;;;;;;8.85;84.26;100957.88;8295029;28;20073;-74
2022/11/12 10:02:06;;;;;;;65.47;29.77;;;;;;;8.76;84.98;100948.63;8294486;28;20439;-74
2022/11/12 10:06:15;;;;;;;19.60;10.88;;;;;;;8.68;85.45;100957.13;8294568;28;20058;-73
2022/11/12 10:10:41;;;;;;;12.40;7.03;;;;;;;8.62;85.93;100963.53;8278485;28;20124;-74
2022/11/12 10:14:57;;;;;;;18.17;7.72;;;;;;;8.59;86.12;100947.88;8294330;28;20137;-73
2022/11/12 10:19:25;;;;;;;15.45;7.53;;;;;;;8.56;86.45;100959.16;8294564;28;20046;-74
2022/11/12 10:23:28;;;;;;;15.02;6.90;;;;;;;8.63;86.39;100959.78;8294608;28;20411;-73
2022/11/12 10:27:37;;;;;;;18.33;7.95;;;;;;;8.74;86.32;100950.75;8278000;28;20057;-74
2022/11/12 10:31:38;;;;;;;17.48;7.82;;;;;;;8.95;85.57;100956.38;8388840;28;20044;-73
2022/11/12 10:35:39;;;;;;;22.52;7.82;;;;;;;9.11;84.39;100955.47;8409077;28;20125;-74
2022/11/12 10:39:42;;;;;;;15.38;7.07;;;;;;;9.24;84.43;100953.19;8372307;28;20515;-74
2022/11/12 10:43:55;;;;;;;19.80;7.85;;;;;;;9.38;84.10;100940.09;8429875;28;20512;-74
2022/11/12 10:47:56;;;;;;;18.75;6.95;;;;;;;9.55;83.73;100940.78;8436893;28;20093;-74
2022/11/12 10:51:58;;;;;;;16.55;7.68;;;;;;;9.68;83.55;100945.72;8429755;28;20059;-75
2022/11/12 10:56:01;;;;;;;17.80;7.65;;;;;;;9.89;83.35;100945.88;8433083;28;20055;-74
2022/11/12 11:00:11;;;;;;;18.25;7.68;;;;;;;10.05;83.13;100937.63;8429425;28;20042;-73
2022/11/12 11:04:34;;;;;;;17.52;7.57;;;;;;;10.25;82.72;100939.69;8428735;28;20055;-73
2022/11/12 11:08:41;;;;;;;17.17;7.53;;;;;;;10.37;81.83;100940.28;8401493;28;20417;-75
2022/11/12 11:12:42;;;;;;;14.95;6.68;;;;;;;10.47;81.76;100931.41;8433951;28;20455;-75
2022/11/12 11:16:55;;;;;;;17.23;7.78;;;;;;;10.57;81.39;100932.25;8409021;28;20044;-74
2022/11/12 11:21:15;;;;;;;13.07;6.32;;;;;;;10.67;81.50;100936.09;8427091;28;20441;-75
2022/11/12 11:25:26;;;;;;;22.13;6.78;;;;;;;10.65;80.84;100927.44;8426632;28;20043;-74
2022/11/12 11:29:46;;;;;;;16.85;7.63;;;;;;;10.79;80.74;100933.94;8400991;28;20040;-75
2022/11/12 11:33:55;;;;;;;13.00;7.43;;;;;;;10.89;80.70;100939.41;8374656;28;20048;-74
2022/11/12 11:37:59;;;;;;;19.02;7.55;;;;;;;10.95;79.88;100941.03;8375073;28;20052;-74
2022/11/12 11:42:12;;;;;;;18.52;8.70;;;;;;;10.80;79.44;100928.28;8427892;28;20498;-74
2022/11/12 11:46:40;;;;;;;19.88;8.45;;;;;;;10.80;80.04;100930.19;8424863;28;20105;-74
2022/11/12 11:50:50;;;;;;;22.05;8.30;;;;;;;10.86;80.04;100929.94;8419298;28;20044;-74
2022/11/12 11:55:06;;;;;;;20.55;9.32;;;;;;;10.88;80.06;100924.28;8430282;28;20151;-74
2022/11/12 11:59:32;;;;;;;16.65;8.40;;;;;;;10.93;80.42;100940.50;8411529;28;20436;-74
2022/11/12 12:03:49;;;;;;;17.15;8.38;;;;;;;11.02;80.26;100933.47;8448393;28;20121;-74
2022/11/12 12:07:56;;;;;;;16.35;8.55;;;;;;;11.05;80.29;100932.94;8421118;28;20112;-74
2022/11/12 12:12:15;;;;;;;21.35;8.35;;;;;;;11.11;80.65;100941.88;8412583;28;20055;-74
2022/11/12 12:16:57;;;;;;;18.63;9.70;;;;;;;11.42;80.38;100932.72;8415412;28;20032;-74
2022/11/12 12:21:05;;;;;;;19.58;10.23;;;;;;;11.59;79.64;100927.03;8252565;28;20061;-75
2022/11/12 12:25:17;;;;;;;23.98;9.35;;;;;;;11.81;78.94;100935.72;8250667;28;20609;-74
2022/11/12 12:29:24;;;;;;;30.08;10.98;;;;;;;11.84;79.09;100935.19;8243528;28;20052;-75
2022/11/12 12:34:01;;;;;;;19.65;9.30;;;;;;;11.73;79.18;100939.00;8258042;28;20047;-74
2022/11/12 12:38:23;;;;;;;20.00;9.80;;;;;;;12.00;79.59;100939.47;8244247;28;20049;-74
2022/11/12 12:42:28;;;;;;;30.45;12.40;;;;;;;11.84;79.92;100951.44;8258430;28;20516;-75
2022/11/12 12:46:31;;;;;;;34.28;13.40;;;;;;;11.65;80.69;100942.19;8203143;28;20047;-75
2022/11/12 12:50:36;;;;;;;27.65;13.70;;;;;;;11.42;81.00;100938.13;8185305;28;20043;-75
2022/11/12 12:54:37;;;;;;;31.13;12.82;;;;;;;11.24;81.97;100935.97;8285710;28;20068;-76
2022/11/12 12:58:42;;;;;;;31.33;13.30;;;;;;;11.19;82.22;100928.66;8356580;28;20061;-74
2022/11/12 13:02:42;;;;;;;26.55;13.60;;;;;;;11.15;82.57;100949.22;8358920;28;20494;-76
2022/11/12 13:06:43;;;;;;;31.75;14.25;;;;;;;11.10;82.72;100935.69;8339422;28;20049;-75
2022/11/12 13:10:46;;;;;;;32.20;15.95;;;;;;;11.04;83.17;100928.63;8362184;28;20144;-74
2022/11/12 13:14:52;;;;;;;30.48;15.93;;;;;;;10.93;83.47;100926.97;8363745;28;20190;-76
2022/11/12 13:18:53;;;;;;;36.00;16.77;;;;;;;10.86;83.71;100935.34;8361102;28;20040;-74
2022/11/12 13:22:54;;;;;;;41.03;18.48;;;;;;;10.75;84.51;100939.09;8391212;28;20510;-75
2022/11/12 13:26:59;;;;;;;37.35;17.70;;;;;;;10.70;85.15;100924.75;8433371;28;20146;-74
2022/11/12 13:31:01;;;;;;;34.55;18.13;;;;;;;10.64;85.58;100932.00;8433959;28;20044;-74
2022/11/12 13:35:20;;;;;;;35.15;18.23;;;;;;;10.59;86.02;100935.50;8419702;28;20048;-74
2022/11/12 13:39:23;;;;;;;31.35;16.38;;;;;;;10.49;86.20;100935.47;8429231;28;20055;-74
2022/11/12 13:43:42;;;;;;;33.00;16.13;;;;;;;10.35;86.98;100931.63;8418450;28;20056;-74
2022/11/12 13:47:44;;;;;;;34.53;14.90;;;;;;;10.30;87.31;100936.19;8425099;28;20524;-74
2022/11/12 13:51:47;;;;;;;29.50;14.00;;;;;;;10.19;87.57;100932.63;8395497;28;20096;-74
2022/11/12 13:55:50;;;;;;;27.10;13.52;;;;;;;10.08;87.86;100936.31;8413635;28;20744;-73
2022/11/12 14:00:09;;;;;;;28.40;12.75;;;;;;;9.87;88.01;100931.84;8433038;28;20414;-74
2022/11/12 14:04:18;;;;;;;25.90;12.48;;;;;;;9.83;88.36;100930.75;8450719;28;20066;-74
2022/11/12 14:08:42;;;;;;;26.27;12.93;;;;;;;9.79;88.18;100924.22;8419708;28;20545;-74
2022/11/12 14:13:12;;;;;;;25.35;12.45;;;;;;;9.73;88.04;100916.09;8424785;28;20093;-74
2022/11/12 14:17:35;;;;;;;22.52;11.95;;;;;;;9.68;88.23;100934.94;8327007;28;20052;-73
2022/11/12 14:21:37;;;;;;;27.83;12.90;;;;;;;9.54;88.48;100917.59;8316602;28;20049;-74
2022/11/12 14:25:50;;;;;;;27.25;13.52;;;;;;;9.39;88.69;100922.84;8326700;28;20095;-74
2022/11/12 14:30:24;;;;;;;24.60;12.52;;;;;;;9.30;89.25;100932.47;8325213;28;20129;-74
2022/11/12 14:34:31;;;;;;;24.73;13.50;;;;;;;9.23;89.48;100915.69;8226481;28;20057;-74
2022/11/12 14:38:36;;;;;;;26.38;13.68;;;;;;;9.21;89.66;100917.81;8223385;28;20089;-74
2022/11/12 14:42:39;;;;;;;30.30;13.43;;;;;;;9.17;89.73;100927.50;8191478;28;20404;-74
2022/11/12 14:46:46;;;;;;;26.70;13.90;;;;;;;9.15;89.83;100918.84;8246475;28;20400;-74
2022/11/12 14:50:50;;;;;;;26.70;13.55;;;;;;;9.18;89.73;100918.34;8285039;28;20082;-74
2022/11/12 14:54:55;;;;;;;33.00;13.75;;;;;;;9.07;90.40;100905.84;8280609;28;20046;-74
2022/11/12 14:58:56;;;;;;;24.38;13.80;;;;;;;9.03;90.77;100915.50;8282612;28;20217;-74
2022/11/12 15:02:59;;;;;;;25.05;12.95;;;;;;;9.05;90.75;100903.38;8288934;28;20046;-76
2022/11/12 15:06:59;;;;;;;27.75;13.05;;;;;;;9.03;91.00;100910.13;8289602;28;20053;-74
2022/11/12 15:11:21;;;;;;;29.25;13.43;;;;;;;9.01;91.07;100896.06;8416878;28;20127;-76
2022/11/12 15:15:22;;;;;;;27.92;13.25;;;;;;;8.97;91.14;100909.25;8421398;28;20051;-74
2022/11/12 15:19:24;;;;;;;31.05;12.60;;;;;;;8.94;91.66;100898.16;8370187;28;20409;-74
2022/11/12 15:23:25;;;;;;;25.23;13.10;;;;;;;8.96;91.68;100904.09;8405754;28;20102;-75
2022/11/12 15:27:40;;;;;;;27.80;12.88;;;;;;;8.98;91.53;100896.59;8427874;28;20039;-74
2022/11/12 15:31:45;;;;;;;24.38;11.95;;;;;;;9.00;91.49;100907.91;8419381;28;20541;-74
2022/11/12 15:35:55;;;;;;;24.08;12.20;;;;;;;9.00;91.41;100905.22;8377049;28;20537;-74
2022/11/12 15:40:02;;;;;;;30.08;12.38;;;;;;;8.99;91.45;100925.16;8380637;28;20127;-73
2022/11/12 15:44:04;;;;;;;22.33;12.55;;;;;;;8.99;91.74;100919.78;8411872;28;20040;-74
2022/11/12 15:48:09;;;;;;;25.40;11.68;;;;;;;8.94;91.84;100917.00;8427792;28;20075;-74
2022/11/12 15:52:10;;;;;;;25.63;11.77;;;;;;;8.99;91.68;100925.97;8409913;28;20409;-74
2022/11/12 15:56:13;;;;;;;20.65;11.43;;;;;;;8.97;91.85;100924.59;8427802;28;20044;-74
2022/11/12 16:00:16;;;;;;;28.15;12.65;;;;;;;8.97;91.93;100936.19;8427694;28;20051;-74
2022/11/12 16:04:17;;;;;;;19.77;11.20;;;;;;;8.99;91.85;100927.88;8427900;28;20102;-74
2022/11/12 16:08:18;;;;;;;22.83;11.32;;;;;;;8.99;91.98;100935.94;8427391;28;20044;-74
2022/11/12 16:12:19;;;;;;;30.65;13.23;;;;;;;9.00;92.00;100938.38;8427367;28;20052;-74
2022/11/12 16:16:20;;;;;;;27.25;12.23;;;;;;;8.98;92.33;100939.72;8413558;28;20040;-74
2022/11/12 16:20:25;;;;;;;29.95;12.57;;;;;;;8.99;92.26;100935.94;8427424;28;20059;-74
2022/11/12 16:24:26;;;;;;;20.83;11.73;;;;;;;8.92;92.53;100936.16;8391238;28;20044;-74
2022/11/12 16:28:27;;;;;;;23.13;11.48;;;;;;;8.97;92.58;100935.38;8426802;28;20059;-74
2022/11/12 16:32:28;;;;;;;25.33;12.13;;;;;;;8.97;92.57;100936.19;8426909;28;20040;-75
2022/11/12 16:36:29;;;;;;;26.17;11.90;;;;;;;8.94;92.84;100933.16;8426980;28;20666;-74
2022/11/12 16:40:30;;;;;;;25.23;12.70;;;;;;;8.94;92.80;100938.56;8396470;28;20043;-74
2022/11/12 16:44:31;;;;;;;28.63;13.43;;;;;;;8.94;92.91;100943.94;8426312;28;20497;-75
2022/11/12 16:48:32;;;;;;;29.65;13.18;;;;;;;8.97;92.85;100935.38;8426624;28;20097;-74
2022/11/12 16:52:33;;;;;;;28.38;13.48;;;;;;;8.95;92.89;100929.41;8367588;28;20494;-74
2022/11/12 16:56:35;;;;;;;29.38;14.02;;;;;;;8.94;93.04;100935.88;8426165;28;20048;-74
2022/11/12 17:00:36;;;;;;;22.42;12.55;;;;;;;8.95;92.98;100940.19;8426466;28;20521;-74
2022/11/12 17:04:37;;;;;;;31.60;13.75;;;;;;;8.99;93.05;100941.34;8426281;28;20121;-74
2022/11/12 17:08:38;;;;;;;27.33;13.82;;;;;;;8.99;92.95;100938.66;8426495;28;20044;-75
2022/11/12 17:12:39;;;;;;;27.40;12.75;;;;;;;9.01;93.03;100939.19;8426261;28;20044;-75
2022/11/12 17:16:40;;;;;;;26.52;13.45;;;;;;;8.97;92.99;100924.59;8426346;28;20054;-74
2022/11/12 17:20:41;;;;;;;31.23;14.32;;;;;;;8.98;92.93;100928.94;8408180;28;20048;-75
2022/11/12 17:24:42;;;;;;;26.90;14.43;;;;;;;9.01;92.98;100931.09;8426365;28;20108;-74
2022/11/12 17:28:43;;;;;;;25.90;12.25;;;;;;;9.00;92.92;100926.78;8425806;28;20105;-74
2022/11/12 17:32:44;;;;;;;26.42;11.23;;;;;;;9.00;93.35;100929.47;8426193;28;20052;-74
2022/11/12 17:36:46;;;;;;;36.15;16.80;;;;;;;8.99;93.27;100933.25;8425925;28;20056;-74
2022/11/12 17:40:47;;;;;;;30.23;14.73;;;;;;;9.00;93.11;100929.47;8373857;28;20125;-73
2022/11/12 17:44:48;;;;;;;22.75;13.07;;;;;;;9.03;93.13;100931.69;8425705;28;20072;-74
2022/11/12 17:48:49;;;;;;;25.23;13.48;;;;;;;9.04;93.03;100933.31;8425590;28;20467;-74
2022/11/12 17:52:50;;;;;;;23.88;12.77;;;;;;;9.02;93.16;100935.44;8425669;28;20094;-74
2022/11/12 17:56:51;;;;;;;29.27;12.95;;;;;;;9.02;93.22;100935.44;8430813;28;20494;-74
2022/11/12 18:00:52;;;;;;;23.45;11.63;;;;;;;9.01;93.18;100934.63;8431526;28;20422;-74
2022/11/12 18:04:53;;;;;;;22.20;11.50;;;;;;;9.01;93.44;100934.63;8431552;28;20056;-74
2022/11/12 18:09:05;;;;;;;22.73;12.52;;;;;;;9.02;93.75;100935.44;8373919;28;20044;-74
2022/11/12 18:13:06;;;;;;;24.67;13.18;;;;;;;9.01;93.63;100939.19;8431077;28;20162;-74
2022/11/12 18:17:07;;;;;;;24.38;12.10;;;;;;;9.01;93.51;100928.41;8431334;28;20036;-74
2022/11/12 18:21:08;;;;;;;24.52;11.20;;;;;;;8.98;93.77;100939.72;8350822;28;20478;-74
2022/11/12 18:25:09;;;;;;;21.75;10.93;;;;;;;8.97;94.16;100938.06;8430961;28;20048;-75
2022/11/12 18:29:11;;;;;;;29.73;13.75;;;;;;;8.96;94.17;100936.44;8430295;28;20146;-75
2022/11/12 18:33:12;;;;;;;38.38;19.23;;;;;;;8.95;94.11;100929.41;8431023;28;20048;-74
2022/11/12 18:37:13;;;;;;;35.60;19.02;;;;;;;8.99;93.82;100935.94;8377780;28;20550;-74
2022/11/12 18:41:16;;;;;;;44.70;21.65;;;;;;;8.97;94.14;100943.47;8412413;28;20108;-74
2022/11/12 18:45:17;;;;;;;56.70;24.83;;;;;;;8.94;94.41;100933.16;8430032;28;20052;-74
2022/11/12 18:49:18;;;;;;;42.15;22.63;;;;;;;8.95;94.52;100945.59;8377683;28;20044;-74
2022/11/12 18:53:19;;;;;;;44.22;21.58;;;;;;;8.95;94.67;100945.59;8394159;28;20143;-75
2022/11/12 18:57:21;;;;;;;42.17;21.35;;;;;;;8.98;94.48;100945.09;8429625;28;20040;-74
2022/11/12 19:01:23;;;;;;;31.85;17.00;;;;;;;8.96;94.36;100936.44;8428427;28;20569;-75
2022/11/12 19:05:24;;;;;;;37.33;18.48;;;;;;;8.96;94.55;100941.84;8423174;28;20470;-74
2022/11/12 19:09:25;;;;;;;39.50;20.20;;;;;;;8.97;94.64;100948.84;8428594;28;20047;-74
2022/11/12 19:13:26;;;;;;;38.97;23.50;;;;;;;8.97;94.58;100938.06;8411579;28;20047;-74